Flugplatz Würzburg-Schenkenturm

Für EDFW sind keine METAR/TAF Berichte vorhanden.
Es werden die Flugwettermeldungen vom Flugplatz Niederstetten Airport in 47 km Entfernung angezeigt.

Bericht für ETHN

vom 17.07. um 23:20 UTC

kein Wind

Sichtweite 10 km oder mehr

gering bewölkt in 29000 ft

Temperatur 14.0°C

Taupunkt 10.0°C

Luftfeuchtigkeit 77%

Luftdruck 1014 hPa

ETHN 172320Z 00000KT 9999 FEW290 14/10 Q1014 BLU+
Keine Prognose (TAF) verfügbar.
Impressum